.
WxDataArchive / Data Records for 2012-02-10
2012-02-09 February 2012 2012-02-11

Data Records for Friday, 10 February 2012

Time	Temp	Chill	HIndex	Humid	Dewpt	 Wind 	HiWind	WindDir	Rain 	Barom 
-----	----	-----	------	-----	-----	------	------	-------	-----	----- 
00:00	26.3	26.3	26.3	74	19.2	1	3	248	0.00	30.158 
00:05	26.4	26.4	26.4	74	19.3	1	2	248	0.00	30.158 
00:10	26.4	26.4	26.4	74	19.3	1	3	248	0.00	30.158 
00:15	26.4	26.4	26.4	74	19.3	1	4	248	0.00	30.155 
00:20	26.4	26.4	26.4	74	19.3	1	3	248	0.00	30.155 
00:25	26.3	26.3	26.3	74	19.2	0	3	248	0.00	30.155 
00:30	26.3	26.3	26.3	74	19.2	1	3	248	0.00	30.153 
00:35	26.3	26.3	26.3	74	19.2	1	4	248	0.00	30.153 
00:40	26.1	26.1	26.1	75	19.3	1	4	248	0.00	30.153 
00:45	26.1	26.1	26.1	75	19.3	1	4	248	0.00	30.151 
00:50	26.1	26.1	26.1	75	19.3	1	3	248	0.00	30.151 
00:55	26.0	26.0	26.0	76	19.5	1	4	248	0.00	30.151 
01:00	26.0	26.0	26.0	76	19.5	1	3	248	0.00	30.145 
01:05	26.0	26.0	26.0	76	19.5	0	3	248	0.00	30.145 
01:10	25.8	25.8	25.8	77	19.6	1	2	248	0.00	30.145 
01:15	25.8	25.8	25.8	77	19.6	1	3	248	0.00	30.142 
01:20	25.7	25.7	25.7	77	19.5	0	2	248	0.00	30.142 
01:25	25.6	25.6	25.6	77	19.4	0	3	248	0.00	30.142 
01:30	25.6	25.6	25.6	77	19.4	0	2	248	0.00	30.140 
01:35	25.4	25.4	25.4	78	19.5	0	2	248	0.00	30.140 
01:40	25.4	25.4	25.4	78	19.5	0	2	248	0.00	30.140 
01:45	25.6	25.6	25.6	79	20.0	0	1	248	0.00	30.141 
01:50	25.6	25.6	25.6	79	20.0	0	2	248	0.00	30.141 
01:55	25.7	25.7	25.7	79	20.1	0	2	248	0.00	30.141 
02:00	25.8	25.8	25.8	79	20.2	0	3	248	0.00	30.134 
02:05	25.8	25.8	25.8	79	20.2	0	1	248	0.00	30.134 
02:10	25.8	25.8	25.8	79	20.2	0	2	248	0.00	30.134 
02:15	25.8	25.8	25.8	79	20.2	0	2	248	0.00	30.129 
02:20	26.0	26.0	26.0	78	20.1	1	3	248	0.00	30.129 
02:25	26.1	26.1	26.1	78	20.2	0	1	248	0.00	30.129 
02:30	26.3	26.3	26.3	78	20.4	0	3	248	0.00	30.124 
02:35	26.4	26.4	26.4	77	20.2	0	2	248	0.00	30.124 
02:40	26.7	26.7	26.7	77	20.5	1	3	248	0.00	30.124 
02:45	27.0	27.0	27.0	75	20.2	1	3	248	0.00	30.119 
02:50	27.2	27.2	27.2	74	20.0	1	3	248	0.00	30.119 
02:55	27.5	27.5	27.5	73	20.0	1	3	248	0.00	30.119 
03:00	27.8	27.8	27.8	72	20.0	1	5	248	0.00	30.121 
03:05	27.9	27.9	27.9	71	19.7	1	5	248	0.00	30.121 
03:10	28.1	28.1	28.1	70	19.6	1	4	248	0.00	30.121 
03:15	28.2	28.2	28.2	70	19.7	1	6	248	0.00	30.119 
03:20	28.4	28.4	28.4	69	19.5	1	4	248	0.00	30.119 
03:25	28.5	28.5	28.5	69	19.6	1	3	270	0.00	30.119 
03:30	28.7	28.7	28.7	69	19.8	1	2	270	0.00	30.106 
03:35	28.7	28.7	28.7	68	19.5	0	2	270	0.00	30.106 
03:40	28.7	28.7	28.7	68	19.5	0	2	270	0.00	30.106 
03:45	28.7	28.7	28.7	68	19.5	0	2	270	0.00	30.091 
03:50	28.8	28.8	28.8	68	19.6	0	3	270	0.00	30.091 
03:55	28.8	28.8	28.8	68	19.6	0	2	270	0.00	30.091 
04:00	28.8	28.8	28.8	68	19.6	0	2	270	0.00	30.088 
04:05	29.0	29.0	29.0	68	19.8	0	2	270	0.00	30.088 
04:10	29.0	29.0	29.0	68	19.8	1	3	270	0.00	30.088 
04:15	29.0	29.0	29.0	69	20.1	0	2	270	0.00	30.084 
04:20	29.0	29.0	29.0	69	20.1	0	2	270	0.00	30.084 
04:25	29.0	29.0	29.0	69	20.1	0	2	270	0.00	30.084 
04:30	29.0	29.0	29.0	69	20.1	0	2	270	0.00	30.080 
04:35	29.0	29.0	29.0	69	20.1	0	2	270	0.00	30.080 
04:40	29.0	29.0	29.0	69	20.1	0	2	270	0.00	30.080 
04:45	29.1	29.1	29.1	69	20.2	0	2	270	0.00	30.080 
04:50	29.1	29.1	29.1	69	20.2	0	2	270	0.00	30.080 
04:55	29.1	29.1	29.1	69	20.2	0	2	270	0.00	30.080 
05:00	29.1	29.1	29.1	69	20.2	0	2	270	0.00	30.078 
05:05	29.3	29.3	29.3	69	20.4	1	3	248	0.00	30.078 
05:10	29.3	29.3	29.3	69	20.4	1	4	248	0.00	30.078 
05:15	29.4	29.4	29.4	69	20.5	0	2	248	0.00	30.079 
05:20	29.4	29.4	29.4	69	20.5	0	2	248	0.00	30.079 
05:25	29.4	29.4	29.4	69	20.5	0	2	248	0.00	30.079 
05:30	29.4	29.4	29.4	69	20.5	0	2	248	0.00	30.077 
05:35	29.5	29.5	29.5	69	20.6	0	2	248	0.00	30.077 
05:40	29.5	29.5	29.5	69	20.6	0	2	248	0.00	30.077 
05:45	29.7	29.7	29.7	69	20.8	0	2	248	0.00	30.072 
05:50	29.7	29.7	29.7	69	20.8	0	2	248	0.00	30.072 
05:55	29.7	29.7	29.7	70	21.1	0	2	248	0.00	30.072 
06:00	29.7	29.7	29.7	70	21.1	1	3	248	0.00	30.070 
06:05	29.8	29.8	29.8	70	21.2	0	2	270	0.00	30.070 
06:10	29.8	29.8	29.8	70	21.2	1	3	270	0.00	30.070 
06:15	29.8	29.8	29.8	70	21.2	0	1	270	0.00	30.061 
06:20	29.8	29.8	29.8	70	21.2	0	3	270	0.00	30.061 
06:25	30.0	30.0	30.0	70	21.4	0	2	270	0.00	30.061 
06:30	30.0	30.0	30.0	71	21.8	0	2	270	0.00	30.059 
06:35	30.0	30.0	30.0	71	21.8	0	2	270	0.00	30.059 
06:40	30.0	30.0	30.0	71	21.8	1	4	248	0.00	30.059 
06:45	30.0	30.0	30.0	71	21.8	0	2	248	0.00	30.054 
06:50	30.1	30.1	30.1	71	21.9	0	2	248	0.00	30.054 
06:55	30.1	30.1	30.1	71	21.9	1	2	248	0.00	30.054 
07:00	30.3	30.3	30.3	71	22.0	1	4	248	0.00	30.053 
07:05	30.3	30.3	30.3	71	22.0	0	3	248	0.00	30.053 
07:10	30.3	30.3	30.3	71	22.0	1	3	248	0.00	30.053 
07:15	30.4	30.4	30.4	71	22.1	1	3	248	0.00	30.047 
07:20	30.4	30.4	30.4	71	22.1	0	3	248	0.00	30.047 
07:25	30.4	30.4	30.4	71	22.1	1	4	248	0.00	30.047 
07:30	30.6	30.6	30.6	71	22.3	1	5	248	0.00	30.042 
07:35	30.6	30.6	30.6	71	22.3	1	4	270	0.00	30.042 
07:40	30.6	30.6	30.6	71	22.3	1	3	248	0.00	30.042 
07:45	30.7	30.7	30.7	71	22.4	1	3	248	0.00	30.043 
07:50	30.7	30.7	30.7	71	22.4	1	3	248	0.00	30.043 
07:55	30.7	30.7	30.7	71	22.4	1	4	248	0.00	30.043 
08:00	30.7	30.7	30.7	70	22.1	1	6	248	0.00	30.045 
08:05	30.9	30.9	30.9	71	22.6	1	4	248	0.00	30.045 
08:10	30.9	30.9	30.9	71	22.6	1	4	270	0.00	30.045 
08:15	30.9	30.9	30.9	71	22.6	1	5	248	0.00	30.046 
08:20	30.9	30.9	30.9	71	22.6	1	5	248	0.00	30.046 
08:25	30.9	30.9	30.9	71	22.6	1	3	248	0.00	30.046 
08:30	30.9	30.9	30.9	71	22.6	1	2	248	0.00	30.045 
08:35	30.9	30.9	30.9	71	22.6	1	4	248	0.00	30.045 
08:40	30.9	30.9	30.9	71	22.6	1	5	248	0.00	30.045 
08:45	30.9	30.9	30.9	71	22.6	1	4	248	0.00	30.044 
08:50	30.9	30.9	30.9	71	22.6	1	3	248	0.00	30.044 
08:55	30.9	30.9	30.9	72	23.0	0	3	248	0.00	30.044 
09:00	30.9	30.9	30.9	71	22.6	1	5	225	0.00	30.044 
09:05	31.0	31.0	31.0	71	22.7	1	6	225	0.00	30.044 
09:10	31.0	31.0	31.0	71	22.7	1	3	225	0.00	30.044 
09:15	31.0	31.0	31.0	71	22.7	1	3	248	0.00	30.043 
09:20	31.0	31.0	31.0	70	22.4	1	3	270	0.00	30.043 
09:25	31.2	31.2	31.2	70	22.6	1	4	248	0.00	30.043 
09:30	31.2	31.2	31.2	70	22.6	1	4	248	0.00	30.042 
09:35	31.2	31.2	31.2	70	22.6	1	5	270	0.00	30.042 
09:40	31.3	31.3	31.3	70	22.7	0	2	270	0.00	30.042 
09:45	31.3	31.3	31.3	69	22.3	1	3	270	0.00	30.044 
09:50	31.3	31.3	31.3	69	22.3	2	5	248	0.00	30.044 
09:55	31.5	31.5	31.5	69	22.5	1	3	248	0.00	30.044 
10:00	31.5	31.5	31.5	69	22.5	1	4	248	0.00	30.039 
10:05	31.5	31.5	31.5	69	22.5	1	4	248	0.00	30.039 
10:10	31.6	31.6	31.6	69	22.6	0	2	248	0.00	30.039 
10:15	31.6	31.6	31.6	69	22.6	1	3	248	0.00	30.037 
10:20	31.6	31.6	31.6	69	22.6	2	5	248	0.00	30.037 
10:25	31.6	31.6	31.6	68	22.3	1	5	270	0.00	30.037 
10:30	31.8	31.8	31.8	69	22.8	1	4	270	0.00	30.038 
10:35	31.8	31.8	31.8	68	22.5	1	5	248	0.00	30.038 
10:40	31.9	31.9	31.9	68	22.6	2	7	248	0.00	30.038 
10:45	32.1	32.1	32.1	69	23.1	2	5	248	0.00	30.039 
10:50	32.1	32.1	32.1	69	23.1	1	4	270	0.00	30.039 
10:55	32.2	32.2	32.2	69	23.2	2	5	248	0.00	30.039 
11:00	32.2	32.2	32.2	69	23.2	3	6	248	0.00	30.040 
11:05	32.2	32.2	32.2	69	23.2	3	10	248	0.00	30.040 
11:10	32.2	32.2	32.2	69	23.2	2	6	248	0.00	30.040 
11:15	32.2	32.2	32.2	68	22.8	2	6	248	0.00	30.043 
11:20	32.4	32.4	32.4	68	23.0	2	7	248	0.00	30.043 
11:25	32.4	32.4	32.4	68	23.0	2	8	248	0.00	30.043 
11:30	32.4	32.4	32.4	69	23.4	3	9	248	0.00	30.039 
11:35	32.1	32.1	32.1	71	23.8	3	9	270	0.00	30.039 
11:40	32.1	28.2	32.1	73	24.4	4	9	270	0.00	30.039 
11:45	31.8	31.8	31.8	76	25.1	3	11	248	0.00	30.030 
11:50	31.6	31.6	31.6	78	25.5	2	6	248	0.00	30.030 
11:55	31.3	31.3	31.3	79	25.6	2	7	248	0.00	30.030 
12:00	31.0	31.0	31.0	80	25.6	3	8	248	0.00	30.020 
12:05	30.9	30.9	30.9	82	26.1	2	6	248	0.00	30.020 
12:10	30.9	30.9	30.9	83	26.4	2	4	248	0.00	30.020 
12:15	31.2	31.2	31.2	84	26.9	1	7	270	0.00	30.015 
12:20	31.3	31.3	31.3	84	27.0	1	4	270	0.00	30.015 
12:25	31.3	31.3	31.3	84	27.0	2	5	248	0.00	30.015 
12:30	31.3	31.3	31.3	85	27.3	1	4	248	0.00	30.007 
12:35	31.5	31.5	31.5	85	27.5	1	6	248	0.00	30.007 
12:40	31.5	31.5	31.5	85	27.5	2	7	248	0.00	30.007 
12:45	31.5	31.5	31.5	85	27.5	1	8	225	0.00	29.995 
12:50	31.6	31.6	31.6	85	27.6	1	7	225	0.00	29.995 
12:55	31.6	31.6	31.6	85	27.6	1	4	248	0.00	29.995 
13:00	31.6	31.6	31.6	85	27.6	2	6	225	0.00	29.980 
13:05	31.6	31.6	31.6	85	27.6	1	4	248	0.01	29.980 
13:10	31.9	31.9	31.9	84	27.6	1	5	248	0.00	29.980 
13:15	32.4	32.4	32.4	84	28.1	1	3	225	0.00	29.964 
13:20	32.4	32.4	32.4	84	28.1	1	5	225	0.00	29.964 
13:25	32.2	32.2	32.2	83	27.6	2	9	248	0.00	29.964 
13:30	32.2	32.2	32.2	83	27.6	2	6	248	0.00	29.954 
13:35	32.2	32.2	32.2	84	27.9	1	6	225	0.00	29.954 
13:40	32.2	32.2	32.2	84	27.9	2	5	270	0.00	29.954 
13:45	32.1	32.1	32.1	83	27.5	1	5	248	0.00	29.950 
13:50	31.9	31.9	31.9	83	27.3	2	6	248	0.00	29.950 
13:55	31.8	31.8	31.8	83	27.2	2	7	248	0.00	29.950 
14:00	31.6	31.6	31.6	84	27.3	2	8	248	0.00	29.950 
14:05	31.6	31.6	31.6	84	27.3	1	5	248	0.00	29.950 
14:10	31.6	31.6	31.6	84	27.3	1	3	248	0.00	29.950 
14:15	31.6	31.6	31.6	85	27.6	1	4	248	0.00	29.946 
14:20	31.6	31.6	31.6	84	27.3	2	7	248	0.00	29.946 
14:25	31.8	31.8	31.8	84	27.5	1	4	248	0.00	29.946 
14:30	31.8	31.8	31.8	84	27.5	1	4	248	0.00	29.935 
14:35	31.9	31.9	31.9	84	27.6	1	3	248	0.00	29.935 
14:40	32.1	32.1	32.1	85	28.1	1	3	248	0.00	29.935 
14:45	32.2	32.2	32.2	84	27.9	1	4	248	0.00	29.929 
14:50	32.2	32.2	32.2	84	27.9	1	4	248	0.00	29.929 
14:55	32.2	32.2	32.2	84	27.9	1	5	248	0.00	29.929 
15:00	32.4	32.4	32.4	84	28.1	1	4	248	0.00	29.928 
15:05	32.4	32.4	32.4	84	28.1	0	2	248	0.00	29.928 
15:10	32.5	32.5	32.5	84	28.2	0	2	248	0.00	29.928 
15:15	32.7	32.7	32.7	84	28.4	1	5	248	0.00	29.923 
15:20	32.8	32.8	32.8	84	28.5	1	5	225	0.00	29.923 
15:25	32.8	32.8	32.8	84	28.5	1	7	248	0.00	29.923 
15:30	32.9	32.9	32.9	84	28.6	0	3	225	0.00	29.919 
15:35	32.9	32.9	32.9	84	28.6	2	10	248	0.00	29.919 
15:40	32.9	32.9	32.9	84	28.6	1	5	248	0.00	29.919 
15:45	32.9	32.9	32.9	84	28.6	1	4	248	0.00	29.917 
15:50	32.9	32.9	32.9	84	28.6	1	5	248	0.00	29.917 
15:55	32.9	32.9	32.9	84	28.6	2	6	248	0.00	29.917 
16:00	32.8	32.8	32.8	84	28.5	1	5	248	0.00	29.917 
16:05	32.8	32.8	32.8	84	28.5	1	4	248	0.00	29.917 
16:10	32.8	32.8	32.8	84	28.5	1	6	248	0.00	29.917 
16:15	32.8	32.8	32.8	84	28.5	1	4	270	0.00	29.916 
16:20	32.8	32.8	32.8	84	28.5	0	2	248	0.00	29.916 
16:25	32.8	32.8	32.8	85	28.8	1	4	248	0.00	29.916 
16:30	32.8	32.8	32.8	85	28.8	0	3	248	0.00	29.915 
16:35	32.8	32.8	32.8	85	28.8	1	5	0	0.00	29.915 
16:40	32.7	32.7	32.7	85	28.7	1	4	248	0.00	29.915 
16:45	32.7	32.7	32.7	86	29.0	1	3	248	0.00	29.912 
16:50	32.7	32.7	32.7	86	29.0	1	4	248	0.00	29.912 
16:55	32.7	32.7	32.7	86	29.0	0	3	248	0.00	29.912 
17:00	32.7	32.7	32.7	87	29.3	0	3	248	0.00	29.912 
17:05	32.7	32.7	32.7	87	29.3	0	2	248	0.00	29.912 
17:10	32.7	32.7	32.7	87	29.3	0	3	248	0.00	29.912 
17:15	32.5	32.5	32.5	88	29.3	0	4	270	0.00	29.909 
17:20	32.5	32.5	32.5	88	29.3	1	4	225	0.00	29.909 
17:25	32.5	32.5	32.5	88	29.3	1	4	248	0.00	29.909 
17:30	32.5	32.5	32.5	88	29.3	0	2	292	0.00	29.906 
17:35	32.4	32.4	32.4	88	29.3	0	2	270	0.00	29.906 
17:40	32.4	32.4	32.4	89	29.5	0	2	270	0.00	29.906 
17:45	32.4	32.4	32.4	89	29.5	0	3	90	0.00	29.906 
17:50	32.4	32.4	32.4	89	29.5	0	2	90	0.00	29.906 
17:55	32.2	32.2	32.2	90	29.6	0	2	248	0.00	29.906 
18:00	32.2	32.2	32.2	90	29.6	0	2	248	0.00	29.906 
18:05	32.2	32.2	32.2	90	29.6	0	2	248	0.00	29.906 
18:10	32.1	32.1	32.1	90	29.5	0	3	248	0.00	29.906 
18:15	32.1	32.1	32.1	91	29.8	0	1	248	0.00	29.901 
18:20	32.1	32.1	32.1	91	29.8	0	2	248	0.00	29.901 
18:25	32.1	32.1	32.1	91	29.8	0	1	248	0.00	29.901 
18:30	32.1	32.1	32.1	91	29.8	0	1	248	0.00	29.898 
18:35	32.1	32.1	32.1	91	29.8	0	2	292	0.00	29.898 
18:40	32.1	32.1	32.1	92	30.0	0	3	68	0.00	29.898 
18:45	32.1	32.1	32.1	92	30.0	0	2	112	0.00	29.893 
18:50	31.9	31.9	31.9	92	29.8	0	2	112	0.00	29.893 
18:55	31.9	31.9	31.9	92	29.8	0	1	112	0.00	29.893 
19:00	31.9	31.9	31.9	92	29.8	0	2	248	0.00	29.895 
19:05	31.9	31.9	31.9	92	29.8	0	1	248	0.00	29.895 
19:10	31.9	31.9	31.9	92	29.8	0	3	248	0.00	29.895 
19:15	31.9	31.9	31.9	92	29.8	0	1	270	0.00	29.887 
19:20	31.9	31.9	31.9	92	29.8	0	2	270	0.00	29.887 
19:25	31.9	31.9	31.9	92	29.8	0	2	270	0.00	29.887 
19:30	31.9	31.9	31.9	92	29.8	0	1	338	0.00	29.882 
19:35	31.9	31.9	31.9	92	29.8	0	2	248	0.00	29.882 
19:40	31.9	31.9	31.9	92	29.8	0	3	248	0.00	29.882 
19:45	31.9	31.9	31.9	93	30.1	0	1	248	0.00	29.878 
19:50	32.1	32.1	32.1	93	30.3	0	3	248	0.00	29.878 
19:55	32.1	32.1	32.1	93	30.3	0	2	112	0.00	29.878 
20:00	32.1	32.1	32.1	93	30.3	0	3	225	0.00	29.870 
20:05	32.1	32.1	32.1	93	30.3	0	3	90	0.00	29.870 
20:10	32.1	32.1	32.1	93	30.3	0	1	90	0.00	29.870 
20:15	32.1	32.1	32.1	93	30.3	0	2	248	0.00	29.866 
20:20	32.1	32.1	32.1	93	30.3	0	3	248	0.00	29.866 
20:25	32.1	32.1	32.1	93	30.3	0	2	248	0.00	29.866 
20:30	32.1	32.1	32.1	93	30.3	0	2	248	0.00	29.865 
20:35	32.1	32.1	32.1	93	30.3	0	2	248	0.00	29.865 
20:40	32.1	32.1	32.1	93	30.3	0	1	248	0.00	29.865 
20:45	32.2	32.2	32.2	93	30.4	0	1	248	0.00	29.866 
20:50	32.2	32.2	32.2	93	30.4	0	2	248	0.00	29.866 
20:55	32.2	32.2	32.2	93	30.4	0	1	248	0.00	29.866 
21:00	32.2	32.2	32.2	93	30.4	1	2	248	0.00	29.866 
21:05	32.2	32.2	32.2	93	30.4	0	1	248	0.00	29.866 
21:10	32.4	32.4	32.4	94	30.9	0	1	248	0.00	29.866 
21:15	32.4	32.4	32.4	94	30.9	0	1	248	0.00	29.862 
21:20	32.4	32.4	32.4	94	30.9	0	2	248	0.00	29.862 
21:25	32.4	32.4	32.4	94	30.9	1	3	248	0.00	29.862 
21:30	32.4	32.4	32.4	94	30.9	1	2	248	0.00	29.861 
21:35	32.4	32.4	32.4	94	30.9	0	2	248	0.00	29.861 
21:40	32.5	32.5	32.5	94	31.0	1	2	248	0.00	29.861 
21:45	32.5	32.5	32.5	94	31.0	0	2	248	0.00	29.855 
21:50	32.5	32.5	32.5	94	31.0	0	3	248	0.00	29.855 
21:55	32.5	32.5	32.5	94	31.0	0	2	248	0.00	29.855 
22:00	31.6	31.6	31.6	93	29.8	2	4	270	0.00	29.867 
22:05	29.4	29.4	29.4	91	27.1	2	6	315	0.00	29.867 
22:10	27.6	27.6	27.6	91	25.3	2	3	315	0.00	29.867 
22:15	26.6	26.6	26.6	92	24.6	1	5	315	0.00	29.888 
22:20	26.1	26.1	26.1	92	24.1	1	3	338	0.00	29.888 
22:25	25.7	25.7	25.7	92	23.7	2	5	270	0.00	29.888 
22:30	25.1	25.1	25.1	92	23.1	2	6	338	0.00	29.900 
22:35	24.7	24.7	24.7	92	22.7	2	5	315	0.00	29.900 
22:40	24.4	24.4	24.4	92	22.4	1	3	315	0.00	29.900 
22:45	24.2	24.2	24.2	92	22.2	1	4	292	0.00	29.909 
22:50	23.9	23.9	23.9	91	21.7	1	4	338	0.00	29.909 
22:55	23.8	23.8	23.8	91	21.6	0	3	270	0.00	29.909 
23:00	23.6	23.6	23.6	91	21.4	1	6	270	0.00	29.915 
23:05	23.3	23.3	23.3	91	21.1	1	3	315	0.00	29.915 
23:10	22.9	22.9	22.9	90	20.4	2	6	270	0.00	29.915 
23:15	21.9	21.9	21.9	89	19.2	2	5	0	0.00	29.931 
23:20	21.4	21.4	21.4	89	18.7	2	5	338	0.00	29.931 
23:25	21.3	21.3	21.3	88	18.3	2	6	270	0.00	29.931 
23:30	21.1	21.1	21.1	88	18.1	1	4	315	0.00	29.935 
23:35	21.0	21.0	21.0	87	17.8	2	5	338	0.00	29.935 
23:40	21.0	21.0	21.0	87	17.8	1	4	338	0.00	29.935 
23:45	20.3	20.3	20.3	86	16.8	2	11	0	0.00	29.945 
23:50	20.0	20.0	20.0	86	16.5	1	4	248	0.00	29.945 
23:55	19.9	19.9	19.9	85	16.1	0	2	0	0.00	29.945 

CoCoRaHS
IN-AL-39
A2 Web Hosting
Creative Commons License
GoDaddy
search engine by freefind advanced

loaded 2018-11-13 21:19:25 • last modified 2010-11-18 10:43:29
Privacy PolicyDisclaimer
• wx.awcolley.com is powered by PmWiki v.2002016 •
• all content (unless otherwise noted) © 2018 A W Colley